Time;durP1;ratioP1;P1;durP2;ratioP2;P2;SDS_P1;SDS_P2;PMS_P1;PMS_P2;Temp;Humidity;BMP_temperature;BMP_pressure;BME280_temperature;BME280_humidity;BME280_pressure;Samples;Min_cycle;Max_cycle;Signal;HPM_P1;HPM_P2
2022/12/03 00:00:47;;;;;;;40.60;19.73;;;;;;;;;;5080424;28;20031;-74
2022/12/03 00:03:34;;;;;;;37.40;18.23;;;;;;;;;;5093827;28;20012;-74
2022/12/03 00:06:20;;;;;;;36.33;19.23;;;;;;;;;;5094331;28;20016;-74
2022/12/03 00:09:05;;;;;;;42.22;20.00;;;;;;;;;;5093960;28;20027;-73
2022/12/03 00:11:51;;;;;;;41.67;19.25;;;;;;;;;;5094898;28;20048;-74
2022/12/03 00:14:36;;;;;;;38.75;19.40;;;;;;;;;;5082932;28;20053;-74
2022/12/03 00:17:22;;;;;;;37.35;18.65;;;;;;;;;;5097035;28;20111;-74
2022/12/03 00:20:08;;;;;;;35.90;18.77;;;;;;;;;;5096153;28;20016;-74
2022/12/03 00:22:54;;;;;;;39.75;18.25;;;;;;;;;;5083847;28;20023;-74
2022/12/03 00:25:39;;;;;;;36.20;19.63;;;;;;;;;;5097771;28;20095;-74
2022/12/03 00:28:25;;;;;;;31.63;17.95;;;;;;;;;;5098246;28;20016;-74
2022/12/03 00:31:10;;;;;;;33.00;18.48;;;;;;;;;;5096779;28;20046;-74
2022/12/03 00:33:56;;;;;;;39.83;19.40;;;;;;;;;;5097875;28;20020;-74
2022/12/03 00:36:42;;;;;;;33.60;18.40;;;;;;;;;;5102082;27;20104;-75
2022/12/03 00:39:27;;;;;;;35.88;18.95;;;;;;;;;;5117118;28;20389;-75
2022/12/03 00:42:13;;;;;;;41.83;20.75;;;;;;;;;;5117826;28;20030;-74
2022/12/03 00:44:59;;;;;;;36.13;19.60;;;;;;;;;;5117931;28;20031;-74
2022/12/03 00:47:44;;;;;;;33.85;18.58;;;;;;;;;;5102285;28;20428;-74
2022/12/03 00:50:30;;;;;;;34.85;19.73;;;;;;;;;;5103348;28;20061;-74
2022/12/03 00:53:15;;;;;;;35.72;19.33;;;;;;;;;;5117747;28;20020;-73
2022/12/03 00:56:01;;;;;;;36.08;17.67;;;;;;;;;;5117581;28;20110;-74
2022/12/03 00:58:47;;;;;;;38.08;19.08;;;;;;;;;;5103202;28;20112;-73
2022/12/03 01:01:32;;;;;;;32.10;18.17;;;;;;;;;;5119050;28;20058;-74
2022/12/03 01:04:18;;;;;;;36.47;18.73;;;;;;;;;;5124718;28;20019;-74
2022/12/03 01:07:03;;;;;;;34.63;18.30;;;;;;;;;;5120094;28;20047;-75
2022/12/03 01:09:49;;;;;;;35.90;18.85;;;;;;;;;;5117412;28;20328;-75
2022/12/03 01:12:35;;;;;;;38.00;18.70;;;;;;;;;;5103049;28;20115;-74
2022/12/03 01:15:20;;;;;;;35.17;18.77;;;;;;;;;;5102170;28;20024;-75
2022/12/03 01:18:06;;;;;;;36.80;18.23;;;;;;;;;;5117682;28;20016;-74
2022/12/03 01:20:51;;;;;;;32.08;18.52;;;;;;;;;;5101445;28;20557;-74
2022/12/03 01:23:37;;;;;;;37.55;19.52;;;;;;;;;;5118883;28;20023;-74
2022/12/03 01:26:24;;;;;;;36.80;18.27;;;;;;;;;;5117401;28;20016;-76
2022/12/03 01:29:09;;;;;;;35.13;18.42;;;;;;;;;;5102259;28;20098;-75
2022/12/03 01:34:59;;;;;;;34.83;18.60;;;;;;;;;;5117084;28;20015;-74
2022/12/03 01:37:44;;;;;;;35.53;18.67;;;;;;;;;;5116862;28;20326;-74
2022/12/03 01:40:30;;;;;;;38.72;18.48;;;;;;;;;;5116740;28;20030;-74
2022/12/03 01:43:16;;;;;;;36.03;18.65;;;;;;;;;;5116632;28;20027;-75
2022/12/03 01:46:01;;;;;;;36.22;19.13;;;;;;;;;;5101820;28;20027;-74
2022/12/03 01:48:49;;;;;;;38.10;19.77;;;;;;;;;;5115652;28;20015;-74
2022/12/03 01:51:34;;;;;;;41.33;21.60;;;;;;;;;;5116116;28;20029;-74
2022/12/03 01:54:34;;;;;;;38.00;19.33;;;;;;;;;;5116370;28;20448;-74
2022/12/03 01:57:21;;;;;;;34.97;19.58;;;;;;;;;;5115768;28;20028;-74
2022/12/03 02:00:26;;;;;;;40.08;20.08;;;;;;;;;;5116245;28;20023;-74
2022/12/03 02:03:15;;;;;;;39.45;19.08;;;;;;;;;;5115247;28;20019;-74
2022/12/03 02:06:00;;;;;;;36.33;19.48;;;;;;;;;;5116253;28;20341;-74
2022/12/03 02:08:46;;;;;;;40.00;21.00;;;;;;;;;;5116744;28;20388;-74
2022/12/03 02:11:34;;;;;;;38.22;20.02;;;;;;;;;;5115343;28;20116;-75
2022/12/03 02:14:20;;;;;;;37.10;19.95;;;;;;;;;;5116267;28;20019;-74
2022/12/03 02:17:06;;;;;;;35.45;19.60;;;;;;;;;;5116508;27;20447;-75
2022/12/03 02:19:52;;;;;;;40.40;20.50;;;;;;;;;;5101448;28;20015;-74
2022/12/03 02:22:54;;;;;;;37.38;20.65;;;;;;;;;;5100807;28;20015;-75
2022/12/03 02:25:40;;;;;;;37.03;19.80;;;;;;;;;;5100501;28;20015;-74
2022/12/03 02:28:25;;;;;;;36.58;18.88;;;;;;;;;;5100334;28;20024;-74
2022/12/03 02:31:11;;;;;;;31.80;19.05;;;;;;;;;;5116205;28;20020;-74
2022/12/03 02:33:57;;;;;;;41.65;20.08;;;;;;;;;;5106086;28;20027;-74
2022/12/03 02:36:42;;;;;;;38.20;18.92;;;;;;;;;;5100098;28;20349;-74
2022/12/03 02:39:28;;;;;;;35.70;19.40;;;;;;;;;;5114885;28;20031;-74
2022/12/03 02:45:23;;;;;;;40.47;19.00;;;;;;;;;;5115034;28;20462;-74
2022/12/03 02:48:10;;;;;;;36.10;19.35;;;;;;;;;;5114978;28;20019;-73
2022/12/03 02:50:58;;;;;;;38.60;20.67;;;;;;;;;;5115559;28;20042;-74
2022/12/03 02:53:46;;;;;;;39.58;20.02;;;;;;;;;;5115504;28;20084;-74
2022/12/03 02:56:32;;;;;;;39.30;21.20;;;;;;;;;;5114449;28;20035;-74
2022/12/03 02:59:17;;;;;;;37.40;20.48;;;;;;;;;;5114947;28;20415;-74
2022/12/03 03:02:03;;;;;;;38.38;20.00;;;;;;;;;;5115750;28;20027;-74
2022/12/03 03:04:49;;;;;;;40.28;20.33;;;;;;;;;;5100264;28;20027;-74
2022/12/03 03:07:34;;;;;;;33.75;19.63;;;;;;;;;;5116015;28;20019;-73
2022/12/03 03:10:21;;;;;;;37.70;20.42;;;;;;;;;;5114350;28;20375;-76
2022/12/03 03:13:11;;;;;;;36.78;19.80;;;;;;;;;;5115582;28;20096;-77
2022/12/03 03:15:57;;;;;;;33.80;19.05;;;;;;;;;;5114998;28;20110;-77
2022/12/03 03:18:43;;;;;;;37.28;19.83;;;;;;;;;;5114968;28;20031;-77
2022/12/03 03:21:29;;;;;;;32.53;19.30;;;;;;;;;;5115506;28;20101;-77
2022/12/03 03:24:14;;;;;;;38.92;20.63;;;;;;;;;;5115147;28;20122;-76
2022/12/03 03:27:00;;;;;;;38.05;20.33;;;;;;;;;;5114909;28;20051;-76
2022/12/03 03:29:45;;;;;;;37.38;20.60;;;;;;;;;;5099458;28;20015;-77
2022/12/03 03:32:31;;;;;;;41.42;20.75;;;;;;;;;;5099227;28;20080;-77
2022/12/03 03:35:17;;;;;;;39.72;20.50;;;;;;;;;;5115553;28;20031;-77
2022/12/03 03:38:03;;;;;;;37.08;19.20;;;;;;;;;;5098921;28;20040;-77
2022/12/03 03:40:49;;;;;;;39.85;21.60;;;;;;;;;;5114697;28;20027;-77
2022/12/03 03:43:36;;;;;;;43.20;21.27;;;;;;;;;;5114589;28;20035;-77
2022/12/03 03:46:22;;;;;;;42.38;21.77;;;;;;;;;;5102051;28;20030;-77
2022/12/03 03:49:09;;;;;;;41.67;22.77;;;;;;;;;;5118748;28;20020;-77
2022/12/03 03:51:54;;;;;;;41.13;22.00;;;;;;;;;;5104154;28;20352;-77
2022/12/03 03:54:40;;;;;;;42.88;22.15;;;;;;;;;;5118611;28;20024;-77
2022/12/03 03:57:26;;;;;;;42.97;22.63;;;;;;;;;;5102665;28;20393;-76
2022/12/03 04:00:12;;;;;;;43.03;22.45;;;;;;;;;;5118411;28;20436;-78
2022/12/03 04:02:57;;;;;;;41.67;21.45;;;;;;;;;;5119244;28;20020;-78
2022/12/03 04:05:43;;;;;;;42.45;22.70;;;;;;;;;;5119217;28;20037;-77
2022/12/03 04:08:28;;;;;;;41.55;22.02;;;;;;;;;;5118425;28;20108;-77
2022/12/03 04:14:18;;;;;;;41.17;21.20;;;;;;;;;;5105802;28;20023;-77
2022/12/03 04:17:04;;;;;;;40.25;22.17;;;;;;;;;;5130283;28;20070;-76
2022/12/03 04:19:49;;;;;;;42.28;21.73;;;;;;;;;;5111006;28;20016;-76
2022/12/03 04:22:41;;;;;;;41.47;22.38;;;;;;;;;;5118924;28;20487;-77
2022/12/03 04:28:49;;;;;;;42.33;22.40;;;;;;;;;;5118116;28;20043;-77
2022/12/03 04:37:43;;;;;;;40.13;21.90;;;;;;;;;;5117168;28;20047;-77
2022/12/03 04:43:33;;;;;;;44.47;23.40;;;;;;;;;;5117409;28;20082;-77
2022/12/03 04:46:19;;;;;;;38.65;21.33;;;;;;;;;;5116224;28;20012;-77
2022/12/03 04:49:04;;;;;;;40.25;21.33;;;;;;;;;;5117553;28;20081;-76
2022/12/03 04:51:50;;;;;;;47.25;23.17;;;;;;;;;;5117626;28;20118;-76
2022/12/03 04:54:36;;;;;;;43.40;22.63;;;;;;;;;;5102771;28;20102;-77
2022/12/03 04:57:22;;;;;;;43.83;22.17;;;;;;;;;;5101263;28;20027;-76
2022/12/03 05:00:08;;;;;;;44.28;22.55;;;;;;;;;;5117980;28;20030;-76
2022/12/03 05:02:53;;;;;;;43.03;22.45;;;;;;;;;;5116392;28;20027;-77
2022/12/03 05:05:39;;;;;;;41.40;22.60;;;;;;;;;;5117667;28;20047;-78
2022/12/03 05:08:24;;;;;;;42.78;22.75;;;;;;;;;;5117610;28;20016;-77
2022/12/03 05:11:10;;;;;;;109.35;58.88;;;;;;;;;;5095319;28;20028;-77
2022/12/03 05:13:56;;;;;;;45.92;23.60;;;;;;;;;;5116354;28;20015;-76
2022/12/03 05:16:41;;;;;;;41.45;22.67;;;;;;;;;;5116370;28;20015;-75
2022/12/03 05:20:40;;;;;;;44.85;23.40;;;;;;;;;;5101749;28;20172;-77
2022/12/03 05:22:32;;;;;;;46.25;23.73;;;;;;;;;;5115730;28;20052;-76
2022/12/03 05:25:18;;;;;;;41.42;22.60;;;;;;;;;;5116459;28;20055;-77
2022/12/03 05:28:04;;;;;;;43.63;24.00;;;;;;;;;;5101744;28;20051;-75
2022/12/03 05:30:50;;;;;;;49.47;23.23;;;;;;;;;;5116061;28;20030;-76
2022/12/03 05:33:35;;;;;;;47.10;24.42;;;;;;;;;;5115955;28;20016;-75
2022/12/03 05:36:21;;;;;;;42.40;22.10;;;;;;;;;;5115778;28;20019;-75
2022/12/03 05:39:06;;;;;;;45.47;23.77;;;;;;;;;;5117361;28;20106;-75
2022/12/03 05:44:56;;;;;;;49.20;24.67;;;;;;;;;;5124031;28;20325;-77
2022/12/03 05:47:42;;;;;;;47.65;25.08;;;;;;;;;;5134187;28;20112;-74
2022/12/03 05:50:29;;;;;;;47.72;24.30;;;;;;;;;;5119114;28;20015;-75
2022/12/03 05:53:15;;;;;;;53.42;25.73;;;;;;;;;;5100580;28;20072;-76
2022/12/03 05:56:00;;;;;;;54.40;26.60;;;;;;;;;;5115498;28;20536;-75
2022/12/03 05:58:46;;;;;;;49.70;24.23;;;;;;;;;;5101197;28;20028;-76
2022/12/03 06:01:32;;;;;;;49.85;25.23;;;;;;;;;;5101736;28;20049;-76
2022/12/03 06:04:17;;;;;;;53.40;25.08;;;;;;;;;;5101715;28;20448;-76
2022/12/03 06:07:03;;;;;;;49.50;24.88;;;;;;;;;;5116654;28;20024;-75
2022/12/03 06:09:48;;;;;;;50.83;24.20;;;;;;;;;;5115735;28;20012;-76
2022/12/03 06:12:34;;;;;;;49.92;25.15;;;;;;;;;;5100721;28;20016;-76
2022/12/03 06:15:20;;;;;;;51.72;24.38;;;;;;;;;;5102057;28;20432;-76
2022/12/03 06:18:05;;;;;;;47.83;24.52;;;;;;;;;;5115362;28;20027;-77
2022/12/03 06:20:51;;;;;;;51.00;23.65;;;;;;;;;;5115822;28;20051;-77
2022/12/03 06:23:43;;;;;;;53.60;25.08;;;;;;;;;;5102842;28;20384;-76
2022/12/03 06:26:31;;;;;;;51.45;23.17;;;;;;;;;;5115451;28;20020;-76
2022/12/03 06:29:17;;;;;;;49.03;24.10;;;;;;;;;;5100137;28;20024;-78
2022/12/03 06:32:03;;;;;;;51.50;26.90;;;;;;;;;;5115032;28;20039;-77
2022/12/03 06:34:48;;;;;;;45.63;24.92;;;;;;;;;;5114720;28;20045;-76
2022/12/03 06:37:34;;;;;;;54.67;24.38;;;;;;;;;;5098843;28;20051;-77
2022/12/03 06:40:20;;;;;;;52.85;25.83;;;;;;;;;;5100407;28;20020;-76
2022/12/03 06:43:05;;;;;;;56.88;27.27;;;;;;;;;;5100718;28;20030;-75
2022/12/03 06:45:51;;;;;;;67.70;30.58;;;;;;;;;;5099889;28;20439;-74
2022/12/03 06:48:37;;;;;;;52.53;27.67;;;;;;;;;;5113425;28;20030;-74
2022/12/03 06:51:22;;;;;;;48.47;24.05;;;;;;;;;;5115409;28;20055;-74
2022/12/03 06:54:08;;;;;;;51.65;26.55;;;;;;;;;;5099839;28;20447;-75
2022/12/03 06:56:54;;;;;;;50.58;25.85;;;;;;;;;;5099608;28;20028;-75
2022/12/03 06:59:39;;;;;;;48.95;24.77;;;;;;;;;;5114840;28;20030;-74
2022/12/03 07:02:25;;;;;;;52.25;25.98;;;;;;;;;;5114937;28;20024;-74
2022/12/03 07:05:10;;;;;;;58.10;25.63;;;;;;;;;;5115072;28;20023;-75
2022/12/03 07:07:56;;;;;;;52.33;24.25;;;;;;;;;;5114728;28;20019;-75
2022/12/03 07:10:41;;;;;;;47.03;22.40;;;;;;;;;;5115352;28;20015;-74
2022/12/03 07:13:27;;;;;;;45.53;22.17;;;;;;;;;;5099172;28;20351;-75
2022/12/03 07:16:13;;;;;;;43.20;21.23;;;;;;;;;;5114443;28;20042;-75
2022/12/03 07:18:58;;;;;;;43.53;20.77;;;;;;;;;;5115188;28;20016;-76
2022/12/03 07:21:44;;;;;;;49.45;21.55;;;;;;;;;;5099726;28;20016;-75
2022/12/03 07:24:29;;;;;;;45.65;21.15;;;;;;;;;;5115401;28;20019;-74
2022/12/03 07:27:15;;;;;;;42.67;21.02;;;;;;;;;;5119218;28;20027;-75
2022/12/03 07:30:01;;;;;;;45.97;21.55;;;;;;;;;;5104532;28;20525;-75
2022/12/03 07:32:46;;;;;;;40.60;20.58;;;;;;;;;;5128595;28;20015;-74
2022/12/03 07:35:32;;;;;;;41.28;20.38;;;;;;;;;;5115057;28;20023;-75
2022/12/03 07:38:17;;;;;;;45.00;20.42;;;;;;;;;;5114876;28;20149;-75
2022/12/03 07:41:03;;;;;;;39.17;19.40;;;;;;;;;;5114988;28;20024;-74
2022/12/03 07:43:48;;;;;;;40.88;20.02;;;;;;;;;;5115165;28;20375;-74
2022/12/03 07:46:34;;;;;;;37.25;20.35;;;;;;;;;;5100167;28;20019;-75
2022/12/03 07:49:20;;;;;;;37.95;19.98;;;;;;;;;;5115127;28;20428;-75
2022/12/03 07:52:06;;;;;;;42.45;20.55;;;;;;;;;;5115129;28;20020;-78
2022/12/03 07:54:51;;;;;;;40.05;20.52;;;;;;;;;;5099794;28;20321;-75
2022/12/03 07:57:37;;;;;;;41.50;21.02;;;;;;;;;;5114722;28;20020;-75
2022/12/03 08:00:22;;;;;;;36.50;18.23;;;;;;;;;;5113809;28;20016;-74
2022/12/03 08:03:08;;;;;;;38.50;19.25;;;;;;;;;;5114361;28;20034;-75
2022/12/03 08:05:54;;;;;;;38.63;20.83;;;;;;;;;;5098801;28;20039;-75
2022/12/03 08:08:39;;;;;;;38.63;18.05;;;;;;;;;;5113105;28;20464;-76
2022/12/03 08:11:27;;;;;;;37.97;18.25;;;;;;;;;;5099115;28;20028;-76
2022/12/03 08:14:13;;;;;;;43.45;21.48;;;;;;;;;;5114027;28;20020;-77
2022/12/03 08:16:59;;;;;;;34.97;18.00;;;;;;;;;;5113617;28;20019;-77
2022/12/03 08:19:46;;;;;;;36.47;19.17;;;;;;;;;;5099684;28;20034;-76
2022/12/03 08:22:31;;;;;;;37.60;18.80;;;;;;;;;;5099501;28;20114;-76
2022/12/03 08:25:25;;;;;;;42.95;19.40;;;;;;;;;;5099448;28;20047;-76
2022/12/03 08:28:13;;;;;;;37.55;18.55;;;;;;;;;;5113565;28;20443;-75
2022/12/03 08:30:58;;;;;;;31.88;17.88;;;;;;;;;;5113737;28;20019;-76
2022/12/03 08:33:45;;;;;;;35.63;17.77;;;;;;;;;;5116907;28;20031;-77
2022/12/03 08:36:32;;;;;;;33.45;17.95;;;;;;;;;;5117238;27;20023;-76
2022/12/03 08:39:34;;;;;;;36.40;18.85;;;;;;;;;;5118320;28;20038;-75
2022/12/03 08:42:42;;;;;;;33.30;19.33;;;;;;;;;;5118100;28;20109;-76
2022/12/03 08:45:27;;;;;;;34.85;17.92;;;;;;;;;;5117444;28;20436;-78
2022/12/03 08:48:13;;;;;;;35.65;19.42;;;;;;;;;;5102469;28;20051;-77
2022/12/03 08:51:05;;;;;;;35.58;17.60;;;;;;;;;;5117146;28;20015;-79
2022/12/03 08:53:52;;;;;;;39.10;19.48;;;;;;;;;;5102766;28;20023;-77
2022/12/03 08:56:38;;;;;;;31.85;17.45;;;;;;;;;;5102302;28;20028;-76
2022/12/03 08:59:30;;;;;;;37.35;18.50;;;;;;;;;;5103675;28;20023;-74
2022/12/03 09:02:23;;;;;;;44.33;19.42;;;;;;;;;;5116628;28;20023;-77
2022/12/03 09:05:15;;;;;;;35.30;17.15;;;;;;;;;;5103050;28;20102;-77
2022/12/03 09:08:00;;;;;;;36.40;18.52;;;;;;;;;;5117040;28;20031;-76
2022/12/03 09:10:46;;;;;;;39.47;19.65;;;;;;;;;;5102107;28;20024;-76
2022/12/03 09:13:31;;;;;;;37.67;18.05;;;;;;;;;;5102129;28;20128;-75
2022/12/03 09:16:18;;;;;;;35.22;18.70;;;;;;;;;;5101468;28;20023;-75
2022/12/03 09:19:05;;;;;;;34.88;18.33;;;;;;;;;;5101774;28;20031;-75
2022/12/03 09:21:51;;;;;;;35.28;19.38;;;;;;;;;;5117765;28;20020;-74
2022/12/03 09:24:37;;;;;;;33.67;18.08;;;;;;;;;;5117013;28;20344;-73
2022/12/03 09:27:22;;;;;;;33.15;17.95;;;;;;;;;;5116855;28;20437;-73
2022/12/03 09:30:08;;;;;;;40.55;20.30;;;;;;;;;;5103137;28;20477;-72
2022/12/03 09:32:54;;;;;;;36.10;17.80;;;;;;;;;;5117230;28;20023;-75
2022/12/03 09:35:39;;;;;;;35.95;18.63;;;;;;;;;;5101973;28;20049;-74
2022/12/03 09:38:25;;;;;;;35.22;18.38;;;;;;;;;;5116590;28;20122;-74
2022/12/03 09:41:11;;;;;;;36.25;18.88;;;;;;;;;;5117551;28;20102;-73
2022/12/03 09:43:56;;;;;;;34.58;18.92;;;;;;;;;;5115931;28;20470;-73
2022/12/03 09:46:42;;;;;;;39.08;19.20;;;;;;;;;;5120121;28;20351;-73
2022/12/03 09:49:29;;;;;;;45.08;19.95;;;;;;;;;;5120812;28;20016;-72
2022/12/03 09:52:22;;;;;;;40.75;19.85;;;;;;;;;;5121430;28;20008;-73
2022/12/03 09:55:14;;;;;;;37.55;19.38;;;;;;;;;;5125673;28;20448;-73
2022/12/03 09:57:59;;;;;;;35.97;19.65;;;;;;;;;;5124396;28;20023;-74
2022/12/03 10:00:46;;;;;;;43.47;19.40;;;;;;;;;;5124743;28;20019;-72
2022/12/03 10:03:32;;;;;;;34.38;17.83;;;;;;;;;;5123368;28;20026;-73
2022/12/03 10:06:22;;;;;;;43.90;20.42;;;;;;;;;;5124714;28;20026;-73
2022/12/03 10:09:10;;;;;;;46.92;20.98;;;;;;;;;;5109096;28;20042;-76
2022/12/03 10:11:56;;;;;;;45.70;21.63;;;;;;;;;;5111720;28;20341;-76
2022/12/03 10:14:42;;;;;;;48.88;22.08;;;;;;;;;;5123355;28;20392;-75
2022/12/03 10:17:29;;;;;;;44.67;21.25;;;;;;;;;;5129433;28;20024;-75
2022/12/03 10:20:17;;;;;;;43.80;21.13;;;;;;;;;;5113615;28;20023;-76
2022/12/03 10:23:02;;;;;;;43.58;21.90;;;;;;;;;;5132597;28;20050;-76
2022/12/03 10:25:49;;;;;;;52.10;22.25;;;;;;;;;;5133258;28;20023;-76
2022/12/03 10:28:36;;;;;;;43.50;21.60;;;;;;;;;;5131051;28;20015;-77
2022/12/03 10:31:33;;;;;;;45.83;21.95;;;;;;;;;;5113420;28;20030;-78
2022/12/03 10:34:23;;;;;;;42.78;21.00;;;;;;;;;;5115483;28;20073;-78
2022/12/03 10:37:14;;;;;;;40.70;19.88;;;;;;;;;;5118002;28;20055;-77
2022/12/03 10:40:04;;;;;;;38.42;19.95;;;;;;;;;;5125461;28;20056;-73
2022/12/03 10:42:49;;;;;;;39.00;20.10;;;;;;;;;;5131196;28;20197;-77
2022/12/03 10:45:35;;;;;;;42.70;20.67;;;;;;;;;;5116231;28;20078;-80
2022/12/03 10:48:26;;;;;;;43.92;21.08;;;;;;;;;;5106786;28;20020;-73
2022/12/03 10:51:21;;;;;;;44.55;21.05;;;;;;;;;;5112427;28;20023;-74
2022/12/03 10:54:13;;;;;;;37.60;20.42;;;;;;;;;;5128512;28;20119;-75
2022/12/03 10:56:58;;;;;;;37.40;19.73;;;;;;;;;;5125053;28;20027;-75
2022/12/03 10:59:44;;;;;;;37.28;18.30;;;;;;;;;;5125993;28;20015;-75
2022/12/03 11:02:30;;;;;;;34.38;18.67;;;;;;;;;;5119112;28;20409;-75
2022/12/03 11:05:17;;;;;;;36.17;19.42;;;;;;;;;;5099183;28;20031;-74
2022/12/03 11:08:02;;;;;;;38.75;18.95;;;;;;;;;;5102749;28;20020;-75
2022/12/03 11:10:55;;;;;;;39.60;20.67;;;;;;;;;;5119359;28;20297;-75
2022/12/03 11:13:44;;;;;;;39.72;21.25;;;;;;;;;;5120528;28;20105;-74
2022/12/03 11:16:38;;;;;;;36.72;18.92;;;;;;;;;;5103224;28;20169;-75
2022/12/03 11:19:44;;;;;;;39.17;19.95;;;;;;;;;;5100624;28;20027;-75
2022/12/03 11:22:39;;;;;;;38.53;19.30;;;;;;;;;;5113828;28;20034;-77
2022/12/03 11:25:27;;;;;;;31.50;17.45;;;;;;;;;;5113427;28;20312;-76
2022/12/03 11:28:13;;;;;;;32.38;18.60;;;;;;;;;;5109222;28;20106;-75
2022/12/03 11:31:01;;;;;;;34.38;19.08;;;;;;;;;;5099989;28;20020;-76
2022/12/03 11:33:46;;;;;;;34.47;18.83;;;;;;;;;;5098919;28;20019;-76
2022/12/03 11:36:32;;;;;;;39.33;20.45;;;;;;;;;;5112023;28;20088;-77
2022/12/03 11:39:37;;;;;;;38.22;20.40;;;;;;;;;;5093325;28;20016;-77
2022/12/03 11:42:26;;;;;;;40.47;19.77;;;;;;;;;;5094334;28;20360;-75
2022/12/03 11:45:26;;;;;;;35.10;20.10;;;;;;;;;;5088221;28;20043;-72
2022/12/03 11:48:13;;;;;;;34.53;19.52;;;;;;;;;;5093265;28;20024;-72
2022/12/03 11:50:59;;;;;;;32.20;18.50;;;;;;;;;;5095840;28;20031;-73
2022/12/03 11:53:44;;;;;;;37.30;19.13;;;;;;;;;;5094222;28;20107;-74
2022/12/03 11:56:30;;;;;;;35.20;18.83;;;;;;;;;;5093832;28;20414;-75
2022/12/03 11:59:17;;;;;;;35.25;18.58;;;;;;;;;;5093710;28;20428;-73
2022/12/03 12:02:18;;;;;;;34.05;18.58;;;;;;;;;;5078558;28;20459;-76
2022/12/03 12:05:13;;;;;;;38.28;18.42;;;;;;;;;;5094406;28;20031;-72
2022/12/03 12:08:00;;;;;;;36.28;19.50;;;;;;;;;;5096677;28;20020;-75
2022/12/03 12:10:47;;;;;;;37.60;19.30;;;;;;;;;;5083098;28;20020;-74
2022/12/03 12:13:32;;;;;;;36.75;18.70;;;;;;;;;;5098083;28;20027;-76
2022/12/03 12:16:34;;;;;;;37.47;19.35;;;;;;;;;;5105917;28;20081;-75
2022/12/03 12:19:29;;;;;;;35.78;19.75;;;;;;;;;;5082368;28;20031;-73
2022/12/03 12:22:16;;;;;;;38.83;20.17;;;;;;;;;;5097111;28;20440;-72
2022/12/03 12:25:05;;;;;;;40.22;20.88;;;;;;;;;;5097356;28;20031;-74
2022/12/03 12:27:52;;;;;;;38.55;20.83;;;;;;;;;;5096641;28;20016;-74
2022/12/03 12:30:38;;;;;;;42.97;20.75;;;;;;;;;;5098211;28;20056;-74
2022/12/03 12:33:24;;;;;;;34.92;19.10;;;;;;;;;;5083463;28;20031;-74
2022/12/03 12:36:10;;;;;;;38.72;19.83;;;;;;;;;;5097973;28;20039;-76
2022/12/03 12:38:58;;;;;;;38.75;21.10;;;;;;;;;;5097473;28;20043;-75
2022/12/03 12:41:47;;;;;;;40.60;20.38;;;;;;;;;;5082798;28;20390;-78
2022/12/03 12:44:32;;;;;;;39.88;21.27;;;;;;;;;;5098280;28;20022;-77
2022/12/03 12:47:18;;;;;;;38.33;19.98;;;;;;;;;;5099142;28;20089;-76
2022/12/03 12:50:08;;;;;;;39.08;20.48;;;;;;;;;;5097649;28;20039;-73
2022/12/03 12:52:57;;;;;;;34.17;19.08;;;;;;;;;;5097014;28;20024;-77
2022/12/03 12:55:42;;;;;;;37.30;18.73;;;;;;;;;;5098120;28;20026;-73
2022/12/03 12:58:29;;;;;;;34.55;19.00;;;;;;;;;;5098533;28;20020;-77
2022/12/03 13:01:26;;;;;;;35.70;19.77;;;;;;;;;;5097576;28;20027;-76
2022/12/03 13:04:17;;;;;;;39.47;19.75;;;;;;;;;;5099065;28;20019;-76
2022/12/03 13:07:03;;;;;;;38.38;20.42;;;;;;;;;;5096204;28;20020;-77
2022/12/03 13:09:54;;;;;;;39.40;21.27;;;;;;;;;;5097890;28;20444;-82
2022/12/03 13:12:39;;;;;;;37.97;19.73;;;;;;;;;;5098936;28;20108;-80
2022/12/03 13:15:35;;;;;;;35.65;19.13;;;;;;;;;;5097803;28;20035;-81
2022/12/03 13:18:25;;;;;;;35.95;19.10;;;;;;;;;;5096632;28;20035;-79
2022/12/03 13:21:24;;;;;;;39.88;19.35;;;;;;;;;;5096986;28;20103;-75
2022/12/03 13:24:28;;;;;;;34.67;18.02;;;;;;;;;;5096750;28;20012;-77
2022/12/03 13:27:17;;;;;;;33.15;17.83;;;;;;;;;;5081787;28;20452;-77
2022/12/03 13:30:07;;;;;;;31.48;17.90;;;;;;;;;;5081440;28;20039;-77
2022/12/03 13:32:53;;;;;;;36.25;19.17;;;;;;;;;;5095375;28;20024;-78
2022/12/03 13:35:40;;;;;;;34.25;19.17;;;;;;;;;;5095591;28;20399;-77
2022/12/03 13:38:26;;;;;;;35.30;19.30;;;;;;;;;;5099465;28;20047;-77
2022/12/03 13:44:18;;;;;;;31.35;17.27;;;;;;;;;;5116435;28;20402;-78
2022/12/03 13:47:10;;;;;;;31.83;18.75;;;;;;;;;;5116820;28;20034;-78
2022/12/03 13:49:57;;;;;;;33.47;18.02;;;;;;;;;;5116966;28;20078;-78
2022/12/03 13:52:43;;;;;;;31.42;18.00;;;;;;;;;;5115355;28;20077;-77
2022/12/03 13:55:30;;;;;;;33.13;18.73;;;;;;;;;;5101519;28;20084;-78
2022/12/03 13:58:15;;;;;;;29.92;17.05;;;;;;;;;;5117095;27;20015;-78
2022/12/03 14:01:01;;;;;;;32.33;18.33;;;;;;;;;;5100927;28;20035;-78
2022/12/03 14:03:47;;;;;;;28.38;16.73;;;;;;;;;;5101210;28;20012;-78
2022/12/03 14:06:32;;;;;;;29.27;16.33;;;;;;;;;;5101355;28;20347;-78
2022/12/03 14:09:18;;;;;;;35.10;18.70;;;;;;;;;;5115722;28;20050;-78
2022/12/03 14:15:09;;;;;;;36.58;20.98;;;;;;;;;;5116098;28;20020;-78
2022/12/03 14:17:55;;;;;;;38.88;19.80;;;;;;;;;;5115469;28;20039;-77
2022/12/03 14:20:40;;;;;;;41.53;21.50;;;;;;;;;;5101469;28;20286;-78
2022/12/03 14:23:26;;;;;;;39.13;19.83;;;;;;;;;;5115956;28;20107;-78
2022/12/03 14:26:12;;;;;;;34.42;19.35;;;;;;;;;;5100982;28;20106;-79
2022/12/03 14:28:57;;;;;;;35.30;19.40;;;;;;;;;;5101346;28;20027;-78
2022/12/03 14:31:43;;;;;;;35.05;19.20;;;;;;;;;;5102944;28;20364;-79
2022/12/03 14:34:29;;;;;;;35.35;20.50;;;;;;;;;;5115786;28;20015;-79
2022/12/03 14:37:14;;;;;;;37.67;20.42;;;;;;;;;;5114706;28;20040;-79
2022/12/03 14:40:00;;;;;;;35.95;19.23;;;;;;;;;;5102021;28;20020;-81
2022/12/03 14:42:45;;;;;;;37.60;19.92;;;;;;;;;;5101341;28;20015;-79
2022/12/03 14:45:31;;;;;;;35.70;20.00;;;;;;;;;;5114549;28;20106;-78
2022/12/03 14:48:17;;;;;;;35.78;19.02;;;;;;;;;;5115004;28;20034;-79
2022/12/03 14:51:02;;;;;;;34.45;18.77;;;;;;;;;;5114709;28;20086;-78
2022/12/03 14:53:48;;;;;;;38.60;19.88;;;;;;;;;;5101828;28;20024;-78
2022/12/03 14:56:33;;;;;;;36.88;20.65;;;;;;;;;;5114904;28;20023;-78
2022/12/03 14:59:19;;;;;;;36.78;20.63;;;;;;;;;;5114766;28;20451;-78
2022/12/03 15:02:05;;;;;;;39.25;21.00;;;;;;;;;;5115364;28;20019;-79
2022/12/03 15:04:50;;;;;;;38.67;20.95;;;;;;;;;;5101107;28;20398;-79
2022/12/03 15:07:38;;;;;;;37.03;20.33;;;;;;;;;;5114951;28;20414;-79
2022/12/03 15:10:23;;;;;;;39.45;21.25;;;;;;;;;;5115614;28;20023;-79
2022/12/03 15:13:09;;;;;;;41.95;21.48;;;;;;;;;;5114963;28;20024;-80
2022/12/03 15:15:54;;;;;;;47.00;20.85;;;;;;;;;;5114807;28;20066;-80
2022/12/03 15:18:40;;;;;;;36.85;21.10;;;;;;;;;;5115046;28;20023;-79
2022/12/03 15:21:27;;;;;;;37.88;20.65;;;;;;;;;;5100549;28;20023;-80
2022/12/03 15:24:13;;;;;;;39.67;20.60;;;;;;;;;;5115553;28;20019;-79
2022/12/03 15:26:58;;;;;;;37.13;21.85;;;;;;;;;;5114559;28;20020;-79
2022/12/03 15:29:44;;;;;;;41.38;22.05;;;;;;;;;;5113687;28;20012;-79
2022/12/03 15:32:29;;;;;;;37.03;21.52;;;;;;;;;;5114470;28;20160;-80
2022/12/03 15:35:17;;;;;;;42.97;21.73;;;;;;;;;;5114752;28;20016;-79
2022/12/03 15:38:02;;;;;;;179.30;94.85;;;;;;;;;;5099394;28;20044;-80
2022/12/03 15:40:48;;;;;;;53.08;28.40;;;;;;;;;;5114866;28;20179;-79
2022/12/03 15:43:34;;;;;;;79.47;41.55;;;;;;;;;;5118510;28;20027;-79
2022/12/03 15:46:19;;;;;;;46.45;24.20;;;;;;;;;;5118415;28;20076;-79
2022/12/03 15:49:05;;;;;;;46.55;25.23;;;;;;;;;;5118664;28;20027;-79
2022/12/03 15:51:50;;;;;;;42.22;23.45;;;;;;;;;;5104524;28;20127;-79
2022/12/03 15:54:36;;;;;;;43.95;24.40;;;;;;;;;;5119104;28;20042;-79
2022/12/03 15:57:22;;;;;;;44.50;24.63;;;;;;;;;;5118474;28;20043;-78
2022/12/03 16:00:08;;;;;;;84.97;48.00;;;;;;;;;;5118354;28;20030;-79
2022/12/03 16:02:54;;;;;;;82.68;46.55;;;;;;;;;;5118073;28;20123;-79
2022/12/03 16:05:39;;;;;;;46.13;25.23;;;;;;;;;;5105737;28;20058;-81
2022/12/03 16:08:25;;;;;;;46.70;25.00;;;;;;;;;;5104490;28;20332;-79
2022/12/03 16:11:11;;;;;;;41.38;22.15;;;;;;;;;;5118603;28;20024;-78
2022/12/03 16:13:56;;;;;;;45.85;23.15;;;;;;;;;;5118056;28;20047;-78
2022/12/03 16:16:42;;;;;;;41.97;22.92;;;;;;;;;;5103633;28;20478;-78
2022/12/03 16:19:28;;;;;;;41.70;23.17;;;;;;;;;;5117564;28;20098;-78
2022/12/03 16:22:14;;;;;;;40.53;22.52;;;;;;;;;;5117973;28;20027;-76
2022/12/03 16:24:59;;;;;;;39.15;22.55;;;;;;;;;;5118419;28;20031;-77
2022/12/03 16:27:45;;;;;;;38.42;22.05;;;;;;;;;;5117762;28;20106;-79
2022/12/03 16:30:30;;;;;;;41.50;24.00;;;;;;;;;;5103718;28;20028;-78
2022/12/03 16:33:16;;;;;;;41.00;23.10;;;;;;;;;;5117414;28;20028;-78
2022/12/03 16:36:01;;;;;;;36.53;21.08;;;;;;;;;;5103561;28;20016;-77
2022/12/03 16:38:47;;;;;;;43.03;22.73;;;;;;;;;;5117487;28;20161;-78
2022/12/03 16:41:32;;;;;;;41.45;22.90;;;;;;;;;;5117280;28;20501;-78